Terminal Aerodrome Forecast
Issued by NWS

Home | Current Version | Previous Version | Text Only | Print | Product List | Glossary On
Versions: 1 2 3 4 5 6 7 8 9 10 11 12 13 14 15 16 17 18 19 20 21 22 23 24 25 26 27 28 29
000
FTAK31 PAFA 130057 AAB
TAFAOM
TAF AMD
PAOM 130057Z 1301/1324 15010KT 1SM BR VCSH BKN006 OVC015
      TEMPO 1301/1304 3/4SM BR BKN003
     FM130600 25006KT P6SM SCT060 BKN120
     FM131800 21015KT P6SM -SHRA SCT008 BKN015=

USA.gov is the U.S. government's official web portal to all federal, state and local government web resources and services.